Champagne, Canada
Current Conditions -  °F | °C
As of 9:00 PM on Saturday 25 Oct 2014 (Local Time) from CYXY Reporting Station
Light Snow Light Snow  
Wind Chill: 23°   Ceiling: 1000
Heat Index: 28°   Visibility: 5mi
Dew Point: 27°   Wind: 5mph
Humidity: 93%   Direction: 320°NW
Pressure: 29.71"   Gusts: NA
Location:  60.79°N, 136.48°W
Report Text: CYXY 260400Z 32004KT 5SM -SN BKN010 OVC015 M02/M03 A2971 RMK SC6SC2 /S01/ SLP106
Loading
Personal Weather Stations






























Interactive Weather Map
Tropical Storm Tracking
New forecast layout! Learn more

10-Day Weather Forecast

Advertisements
Track Severe Weather on mobile